sensor_id;sensor_type;location;lat;lon;timestamp;P1;durP1;ratioP1;P2;durP2;ratioP2
18302;SDS011;9277;37.980;23.748;2023-03-23T00:02:13;4.40;;;3.15;;
18302;SDS011;9277;37.980;23.748;2023-03-23T00:04:41;6.25;;;3.22;;
18302;SDS011;9277;37.980;23.748;2023-03-23T00:07:08;3.92;;;3.13;;
18302;SDS011;9277;37.980;23.748;2023-03-23T00:09:37;7.05;;;3.25;;
18302;SDS011;9277;37.980;23.748;2023-03-23T00:12:06;6.18;;;3.33;;
18302;SDS011;9277;37.980;23.748;2023-03-23T00:14:33;6.57;;;3.58;;
18302;SDS011;9277;37.980;23.748;2023-03-23T00:17:06;7.57;;;3.65;;
18302;SDS011;9277;37.980;23.748;2023-03-23T00:19:35;8.88;;;3.78;;
18302;SDS011;9277;37.980;23.748;2023-03-23T00:22:13;5.55;;;3.30;;
18302;SDS011;9277;37.980;23.748;2023-03-23T00:24:40;4.60;;;3.15;;
18302;SDS011;9277;37.980;23.748;2023-03-23T00:27:07;5.45;;;2.92;;
18302;SDS011;9277;37.980;23.748;2023-03-23T00:29:38;5.53;;;3.60;;
18302;SDS011;9277;37.980;23.748;2023-03-23T00:32:05;7.03;;;3.50;;
18302;SDS011;9277;37.980;23.748;2023-03-23T00:34:32;4.25;;;3.20;;
18302;SDS011;9277;37.980;23.748;2023-03-23T00:36:59;3.67;;;2.97;;
18302;SDS011;9277;37.980;23.748;2023-03-23T00:39:28;6.50;;;3.25;;
18302;SDS011;9277;37.980;23.748;2023-03-23T00:41:55;5.15;;;3.88;;
18302;SDS011;9277;37.980;23.748;2023-03-23T00:44:25;4.53;;;3.47;;
18302;SDS011;9277;37.980;23.748;2023-03-23T00:46:53;7.88;;;3.60;;
18302;SDS011;9277;37.980;23.748;2023-03-23T00:49:21;7.90;;;4.22;;
18302;SDS011;9277;37.980;23.748;2023-03-23T00:51:50;8.30;;;3.85;;
18302;SDS011;9277;37.980;23.748;2023-03-23T00:54:16;9.85;;;4.72;;
18302;SDS011;9277;37.980;23.748;2023-03-23T00:56:45;7.40;;;3.30;;
18302;SDS011;9277;37.980;23.748;2023-03-23T00:59:12;7.32;;;3.33;;
18302;SDS011;9277;37.980;23.748;2023-03-23T01:01:39;5.55;;;3.78;;
18302;SDS011;9277;37.980;23.748;2023-03-23T01:04:06;4.47;;;3.10;;
18302;SDS011;9277;37.980;23.748;2023-03-23T01:06:33;10.75;;;3.80;;
18302;SDS011;9277;37.980;23.748;2023-03-23T01:09:04;6.40;;;3.75;;
18302;SDS011;9277;37.980;23.748;2023-03-23T01:11:31;6.80;;;4.00;;
18302;SDS011;9277;37.980;23.748;2023-03-23T01:13:59;4.55;;;3.45;;
18302;SDS011;9277;37.980;23.748;2023-03-23T01:16:26;7.10;;;4.15;;
18302;SDS011;9277;37.980;23.748;2023-03-23T01:18:53;6.40;;;3.60;;
18302;SDS011;9277;37.980;23.748;2023-03-23T01:21:20;9.60;;;4.50;;
18302;SDS011;9277;37.980;23.748;2023-03-23T01:23:47;7.53;;;4.07;;
18302;SDS011;9277;37.980;23.748;2023-03-23T01:26:15;7.97;;;3.97;;
18302;SDS011;9277;37.980;23.748;2023-03-23T01:28:42;10.63;;;3.60;;
18302;SDS011;9277;37.980;23.748;2023-03-23T01:31:11;5.43;;;3.47;;
18302;SDS011;9277;37.980;23.748;2023-03-23T01:33:39;5.78;;;3.45;;
18302;SDS011;9277;37.980;23.748;2023-03-23T01:36:07;4.93;;;3.17;;
18302;SDS011;9277;37.980;23.748;2023-03-23T01:38:34;7.88;;;4.75;;
18302;SDS011;9277;37.980;23.748;2023-03-23T01:41:02;6.65;;;3.70;;
18302;SDS011;9277;37.980;23.748;2023-03-23T01:43:29;4.38;;;3.50;;
18302;SDS011;9277;37.980;23.748;2023-03-23T01:45:56;6.30;;;3.72;;
18302;SDS011;9277;37.980;23.748;2023-03-23T01:48:25;10.55;;;4.57;;
18302;SDS011;9277;37.980;23.748;2023-03-23T01:50:54;7.10;;;3.63;;
18302;SDS011;9277;37.980;23.748;2023-03-23T01:53:21;6.82;;;3.63;;
18302;SDS011;9277;37.980;23.748;2023-03-23T01:55:49;7.50;;;3.97;;
18302;SDS011;9277;37.980;23.748;2023-03-23T01:58:19;7.35;;;3.67;;
18302;SDS011;9277;37.980;23.748;2023-03-23T02:00:47;5.43;;;3.92;;
18302;SDS011;9277;37.980;23.748;2023-03-23T02:03:14;5.95;;;3.80;;
18302;SDS011;9277;37.980;23.748;2023-03-23T02:05:44;7.35;;;3.60;;
18302;SDS011;9277;37.980;23.748;2023-03-23T02:08:11;6.65;;;4.20;;
18302;SDS011;9277;37.980;23.748;2023-03-23T02:10:39;7.35;;;4.07;;
18302;SDS011;9277;37.980;23.748;2023-03-23T02:13:06;4.88;;;3.47;;
18302;SDS011;9277;37.980;23.748;2023-03-23T02:15:36;5.55;;;3.80;;
18302;SDS011;9277;37.980;23.748;2023-03-23T02:18:07;8.52;;;4.18;;
18302;SDS011;9277;37.980;23.748;2023-03-23T02:23:30;4.80;;;3.60;;
18302;SDS011;9277;37.980;23.748;2023-03-23T02:26:03;4.63;;;3.40;;
18302;SDS011;9277;37.980;23.748;2023-03-23T02:28:55;6.88;;;4.22;;
18302;SDS011;9277;37.980;23.748;2023-03-23T02:31:32;5.53;;;3.53;;
18302;SDS011;9277;37.980;23.748;2023-03-23T02:34:05;7.43;;;3.40;;
18302;SDS011;9277;37.980;23.748;2023-03-23T02:36:34;7.18;;;3.88;;
18302;SDS011;9277;37.980;23.748;2023-03-23T02:39:03;4.88;;;3.78;;
18302;SDS011;9277;37.980;23.748;2023-03-23T02:41:33;7.10;;;4.05;;
18302;SDS011;9277;37.980;23.748;2023-03-23T02:44:02;7.18;;;4.18;;
18302;SDS011;9277;37.980;23.748;2023-03-23T02:46:29;5.03;;;3.50;;
18302;SDS011;9277;37.980;23.748;2023-03-23T02:48:57;5.47;;;3.50;;
18302;SDS011;9277;37.980;23.748;2023-03-23T02:51:27;4.45;;;3.30;;
18302;SDS011;9277;37.980;23.748;2023-03-23T02:53:54;7.35;;;3.78;;
18302;SDS011;9277;37.980;23.748;2023-03-23T02:56:22;6.28;;;3.70;;
18302;SDS011;9277;37.980;23.748;2023-03-23T02:58:50;9.07;;;3.72;;
18302;SDS011;9277;37.980;23.748;2023-03-23T03:04:05;5.80;;;3.65;;
18302;SDS011;9277;37.980;23.748;2023-03-23T03:06:36;7.13;;;3.80;;
18302;SDS011;9277;37.980;23.748;2023-03-23T03:09:18;4.35;;;3.15;;
18302;SDS011;9277;37.980;23.748;2023-03-23T03:11:50;5.13;;;3.53;;
18302;SDS011;9277;37.980;23.748;2023-03-23T03:14:19;4.70;;;3.40;;
18302;SDS011;9277;37.980;23.748;2023-03-23T03:16:48;7.43;;;4.18;;
18302;SDS011;9277;37.980;23.748;2023-03-23T03:19:17;5.57;;;3.78;;
18302;SDS011;9277;37.980;23.748;2023-03-23T03:21:48;4.93;;;3.53;;
18302;SDS011;9277;37.980;23.748;2023-03-23T03:24:17;5.05;;;3.22;;
18302;SDS011;9277;37.980;23.748;2023-03-23T03:26:44;5.35;;;3.50;;
18302;SDS011;9277;37.980;23.748;2023-03-23T03:29:13;6.63;;;3.85;;
18302;SDS011;9277;37.980;23.748;2023-03-23T03:31:42;7.25;;;3.70;;
18302;SDS011;9277;37.980;23.748;2023-03-23T03:34:10;7.85;;;3.95;;
18302;SDS011;9277;37.980;23.748;2023-03-23T03:36:38;4.97;;;3.30;;
18302;SDS011;9277;37.980;23.748;2023-03-23T03:39:08;7.72;;;3.42;;
18302;SDS011;9277;37.980;23.748;2023-03-23T03:41:35;6.07;;;3.55;;
18302;SDS011;9277;37.980;23.748;2023-03-23T03:44:03;4.88;;;3.17;;
18302;SDS011;9277;37.980;23.748;2023-03-23T03:46:30;7.90;;;3.50;;
18302;SDS011;9277;37.980;23.748;2023-03-23T03:48:57;5.18;;;3.40;;
18302;SDS011;9277;37.980;23.748;2023-03-23T03:51:24;22.40;;;5.03;;
18302;SDS011;9277;37.980;23.748;2023-03-23T03:53:51;5.68;;;3.17;;
18302;SDS011;9277;37.980;23.748;2023-03-23T03:56:19;6.13;;;3.47;;
18302;SDS011;9277;37.980;23.748;2023-03-23T03:58:50;4.75;;;3.15;;
18302;SDS011;9277;37.980;23.748;2023-03-23T04:01:18;12.65;;;4.03;;
18302;SDS011;9277;37.980;23.748;2023-03-23T04:03:46;6.38;;;3.33;;
18302;SDS011;9277;37.980;23.748;2023-03-23T04:06:13;5.07;;;3.22;;
18302;SDS011;9277;37.980;23.748;2023-03-23T04:08:40;10.00;;;3.63;;
18302;SDS011;9277;37.980;23.748;2023-03-23T04:11:08;7.85;;;3.45;;
18302;SDS011;9277;37.980;23.748;2023-03-23T04:13:36;5.05;;;3.63;;
18302;SDS011;9277;37.980;23.748;2023-03-23T04:16:03;7.13;;;3.80;;
18302;SDS011;9277;37.980;23.748;2023-03-23T04:18:30;8.98;;;3.90;;
18302;SDS011;9277;37.980;23.748;2023-03-23T04:20:59;8.48;;;4.50;;
18302;SDS011;9277;37.980;23.748;2023-03-23T04:23:26;6.38;;;3.88;;
18302;SDS011;9277;37.980;23.748;2023-03-23T04:25:55;7.53;;;3.78;;
18302;SDS011;9277;37.980;23.748;2023-03-23T04:28:23;5.80;;;3.90;;
18302;SDS011;9277;37.980;23.748;2023-03-23T04:30:51;5.40;;;3.35;;
18302;SDS011;9277;37.980;23.748;2023-03-23T04:33:19;7.32;;;4.35;;
18302;SDS011;9277;37.980;23.748;2023-03-23T04:35:46;7.85;;;4.28;;
18302;SDS011;9277;37.980;23.748;2023-03-23T04:38:14;7.28;;;3.80;;
18302;SDS011;9277;37.980;23.748;2023-03-23T04:40:41;6.05;;;4.00;;
18302;SDS011;9277;37.980;23.748;2023-03-23T04:43:09;7.53;;;3.90;;
18302;SDS011;9277;37.980;23.748;2023-03-23T04:45:37;7.45;;;4.13;;
18302;SDS011;9277;37.980;23.748;2023-03-23T04:48:08;7.28;;;3.95;;
18302;SDS011;9277;37.980;23.748;2023-03-23T04:50:35;7.40;;;3.90;;
18302;SDS011;9277;37.980;23.748;2023-03-23T04:53:02;7.00;;;4.00;;
18302;SDS011;9277;37.980;23.748;2023-03-23T04:55:30;6.57;;;4.05;;
18302;SDS011;9277;37.980;23.748;2023-03-23T04:57:57;5.38;;;3.50;;
18302;SDS011;9277;37.980;23.748;2023-03-23T05:00:26;7.32;;;3.80;;
18302;SDS011;9277;37.980;23.748;2023-03-23T05:02:53;7.93;;;4.25;;
18302;SDS011;9277;37.980;23.748;2023-03-23T05:05:22;15.93;;;4.40;;
18302;SDS011;9277;37.980;23.748;2023-03-23T05:07:49;10.73;;;5.72;;
18302;SDS011;9277;37.980;23.748;2023-03-23T05:10:17;10.65;;;4.72;;
18302;SDS011;9277;37.980;23.748;2023-03-23T05:12:43;7.95;;;4.07;;
18302;SDS011;9277;37.980;23.748;2023-03-23T05:15:11;7.35;;;4.68;;
18302;SDS011;9277;37.980;23.748;2023-03-23T05:17:38;8.43;;;4.20;;
18302;SDS011;9277;37.980;23.748;2023-03-23T05:20:06;5.85;;;4.05;;
18302;SDS011;9277;37.980;23.748;2023-03-23T05:22:35;6.90;;;4.30;;
18302;SDS011;9277;37.980;23.748;2023-03-23T05:25:02;8.13;;;4.30;;
18302;SDS011;9277;37.980;23.748;2023-03-23T05:27:30;8.45;;;4.07;;
18302;SDS011;9277;37.980;23.748;2023-03-23T05:29:58;7.18;;;4.07;;
18302;SDS011;9277;37.980;23.748;2023-03-23T05:32:25;8.95;;;3.30;;
18302;SDS011;9277;37.980;23.748;2023-03-23T05:34:54;7.53;;;3.88;;
18302;SDS011;9277;37.980;23.748;2023-03-23T05:37:21;5.38;;;3.65;;
18302;SDS011;9277;37.980;23.748;2023-03-23T05:39:49;6.82;;;3.75;;
18302;SDS011;9277;37.980;23.748;2023-03-23T05:42:18;9.30;;;3.88;;
18302;SDS011;9277;37.980;23.748;2023-03-23T05:44:45;11.50;;;3.90;;
18302;SDS011;9277;37.980;23.748;2023-03-23T05:47:12;5.65;;;3.80;;
18302;SDS011;9277;37.980;23.748;2023-03-23T05:49:39;6.10;;;3.33;;
18302;SDS011;9277;37.980;23.748;2023-03-23T05:52:06;10.48;;;4.50;;
18302;SDS011;9277;37.980;23.748;2023-03-23T05:54:33;11.10;;;3.85;;
18302;SDS011;9277;37.980;23.748;2023-03-23T05:57:01;6.05;;;3.55;;
18302;SDS011;9277;37.980;23.748;2023-03-23T05:59:28;7.18;;;3.33;;
18302;SDS011;9277;37.980;23.748;2023-03-23T06:01:54;5.20;;;3.72;;
18302;SDS011;9277;37.980;23.748;2023-03-23T06:04:22;7.25;;;3.95;;
18302;SDS011;9277;37.980;23.748;2023-03-23T06:06:50;4.28;;;3.55;;
18302;SDS011;9277;37.980;23.748;2023-03-23T06:09:17;11.55;;;4.22;;
18302;SDS011;9277;37.980;23.748;2023-03-23T06:11:43;8.25;;;4.03;;
18302;SDS011;9277;37.980;23.748;2023-03-23T06:14:12;8.70;;;3.97;;
18302;SDS011;9277;37.980;23.748;2023-03-23T06:16:39;9.98;;;3.55;;
18302;SDS011;9277;37.980;23.748;2023-03-23T06:19:05;10.18;;;3.67;;
18302;SDS011;9277;37.980;23.748;2023-03-23T06:21:32;7.07;;;3.80;;
18302;SDS011;9277;37.980;23.748;2023-03-23T06:23:59;8.32;;;3.80;;
18302;SDS011;9277;37.980;23.748;2023-03-23T06:26:27;6.22;;;3.50;;
18302;SDS011;9277;37.980;23.748;2023-03-23T06:28:55;5.25;;;3.45;;
18302;SDS011;9277;37.980;23.748;2023-03-23T06:31:23;6.47;;;3.60;;
18302;SDS011;9277;37.980;23.748;2023-03-23T06:33:50;8.27;;;4.05;;
18302;SDS011;9277;37.980;23.748;2023-03-23T06:36:17;8.23;;;3.88;;
18302;SDS011;9277;37.980;23.748;2023-03-23T06:38:44;8.40;;;4.68;;
18302;SDS011;9277;37.980;23.748;2023-03-23T06:41:11;6.22;;;3.45;;
18302;SDS011;9277;37.980;23.748;2023-03-23T06:43:38;6.32;;;3.70;;
18302;SDS011;9277;37.980;23.748;2023-03-23T06:46:05;6.15;;;3.95;;
18302;SDS011;9277;37.980;23.748;2023-03-23T06:48:33;8.50;;;3.78;;
18302;SDS011;9277;37.980;23.748;2023-03-23T06:51:00;5.70;;;3.40;;
18302;SDS011;9277;37.980;23.748;2023-03-23T06:53:27;4.70;;;3.42;;
18302;SDS011;9277;37.980;23.748;2023-03-23T06:55:54;6.10;;;3.60;;
18302;SDS011;9277;37.980;23.748;2023-03-23T06:58:21;7.25;;;3.60;;
18302;SDS011;9277;37.980;23.748;2023-03-23T07:00:52;7.65;;;3.92;;
18302;SDS011;9277;37.980;23.748;2023-03-23T07:03:19;6.00;;;3.63;;
18302;SDS011;9277;37.980;23.748;2023-03-23T07:05:47;5.80;;;3.80;;
18302;SDS011;9277;37.980;23.748;2023-03-23T07:08:15;6.93;;;3.28;;
18302;SDS011;9277;37.980;23.748;2023-03-23T07:10:42;8.07;;;3.33;;
18302;SDS011;9277;37.980;23.748;2023-03-23T07:13:08;7.93;;;4.00;;
18302;SDS011;9277;37.980;23.748;2023-03-23T07:15:35;6.32;;;3.88;;
18302;SDS011;9277;37.980;23.748;2023-03-23T07:18:02;3.55;;;3.00;;
18302;SDS011;9277;37.980;23.748;2023-03-23T07:20:29;7.00;;;3.17;;
18302;SDS011;9277;37.980;23.748;2023-03-23T07:22:58;9.35;;;3.75;;
18302;SDS011;9277;37.980;23.748;2023-03-23T07:25:26;5.97;;;3.40;;
18302;SDS011;9277;37.980;23.748;2023-03-23T07:27:53;6.43;;;3.63;;
18302;SDS011;9277;37.980;23.748;2023-03-23T07:30:20;5.53;;;3.47;;
18302;SDS011;9277;37.980;23.748;2023-03-23T07:32:47;7.65;;;3.70;;
18302;SDS011;9277;37.980;23.748;2023-03-23T07:35:14;6.30;;;3.35;;
18302;SDS011;9277;37.980;23.748;2023-03-23T07:37:41;7.72;;;4.10;;
18302;SDS011;9277;37.980;23.748;2023-03-23T07:40:10;5.15;;;3.00;;
18302;SDS011;9277;37.980;23.748;2023-03-23T07:42:40;6.90;;;4.63;;
18302;SDS011;9277;37.980;23.748;2023-03-23T07:45:07;5.45;;;3.75;;
18302;SDS011;9277;37.980;23.748;2023-03-23T07:47:34;9.98;;;3.83;;
18302;SDS011;9277;37.980;23.748;2023-03-23T07:50:01;5.82;;;3.45;;
18302;SDS011;9277;37.980;23.748;2023-03-23T07:52:28;5.00;;;3.47;;
18302;SDS011;9277;37.980;23.748;2023-03-23T07:54:55;6.55;;;3.50;;
18302;SDS011;9277;37.980;23.748;2023-03-23T07:57:23;4.53;;;3.15;;
18302;SDS011;9277;37.980;23.748;2023-03-23T07:59:50;7.90;;;4.43;;
18302;SDS011;9277;37.980;23.748;2023-03-23T08:02:17;4.75;;;3.42;;
18302;SDS011;9277;37.980;23.748;2023-03-23T08:04:44;7.63;;;3.83;;
18302;SDS011;9277;37.980;23.748;2023-03-23T08:07:13;5.63;;;2.75;;
18302;SDS011;9277;37.980;23.748;2023-03-23T08:09:41;6.43;;;3.63;;
18302;SDS011;9277;37.980;23.748;2023-03-23T08:12:08;5.13;;;3.28;;
18302;SDS011;9277;37.980;23.748;2023-03-23T08:14:36;5.53;;;3.03;;
18302;SDS011;9277;37.980;23.748;2023-03-23T08:17:03;5.20;;;3.45;;
18302;SDS011;9277;37.980;23.748;2023-03-23T08:19:30;7.47;;;3.35;;
18302;SDS011;9277;37.980;23.748;2023-03-23T08:22:02;6.57;;;3.58;;
18302;SDS011;9277;37.980;23.748;2023-03-23T08:24:28;4.25;;;2.83;;
18302;SDS011;9277;37.980;23.748;2023-03-23T08:26:55;3.53;;;2.47;;
18302;SDS011;9277;37.980;23.748;2023-03-23T08:29:22;5.60;;;3.20;;
18302;SDS011;9277;37.980;23.748;2023-03-23T08:31:51;3.85;;;2.88;;
18302;SDS011;9277;37.980;23.748;2023-03-23T08:34:18;3.47;;;2.72;;
18302;SDS011;9277;37.980;23.748;2023-03-23T08:36:45;21.40;;;3.15;;
18302;SDS011;9277;37.980;23.748;2023-03-23T08:39:12;4.60;;;2.40;;
18302;SDS011;9277;37.980;23.748;2023-03-23T08:41:39;5.80;;;2.80;;
18302;SDS011;9277;37.980;23.748;2023-03-23T08:44:06;9.68;;;3.20;;
18302;SDS011;9277;37.980;23.748;2023-03-23T08:46:34;9.60;;;3.20;;
18302;SDS011;9277;37.980;23.748;2023-03-23T08:49:02;9.98;;;3.20;;
18302;SDS011;9277;37.980;23.748;2023-03-23T08:51:30;5.97;;;3.05;;
18302;SDS011;9277;37.980;23.748;2023-03-23T08:53:57;4.95;;;2.72;;
18302;SDS011;9277;37.980;23.748;2023-03-23T08:56:24;5.57;;;3.25;;
18302;SDS011;9277;37.980;23.748;2023-03-23T08:58:51;4.00;;;2.60;;
18302;SDS011;9277;37.980;23.748;2023-03-23T09:01:18;2.72;;;2.42;;
18302;SDS011;9277;37.980;23.748;2023-03-23T09:03:45;4.43;;;2.78;;
18302;SDS011;9277;37.980;23.748;2023-03-23T09:06:13;4.53;;;2.88;;
18302;SDS011;9277;37.980;23.748;2023-03-23T09:08:40;5.75;;;2.42;;
18302;SDS011;9277;37.980;23.748;2023-03-23T09:11:07;3.78;;;2.95;;
18302;SDS011;9277;37.980;23.748;2023-03-23T09:13:35;4.07;;;2.72;;
18302;SDS011;9277;37.980;23.748;2023-03-23T09:16:02;7.15;;;2.50;;
18302;SDS011;9277;37.980;23.748;2023-03-23T09:18:29;5.20;;;2.03;;
18302;SDS011;9277;37.980;23.748;2023-03-23T09:20:56;4.70;;;2.42;;
18302;SDS011;9277;37.980;23.748;2023-03-23T09:23:24;12.07;;;2.75;;
18302;SDS011;9277;37.980;23.748;2023-03-23T09:25:52;4.57;;;2.42;;
18302;SDS011;9277;37.980;23.748;2023-03-23T09:28:19;4.82;;;2.40;;
18302;SDS011;9277;37.980;23.748;2023-03-23T09:30:46;2.38;;;2.17;;
18302;SDS011;9277;37.980;23.748;2023-03-23T09:33:13;2.78;;;2.53;;
18302;SDS011;9277;37.980;23.748;2023-03-23T09:35:40;3.13;;;2.17;;
18302;SDS011;9277;37.980;23.748;2023-03-23T09:38:08;4.95;;;2.72;;
18302;SDS011;9277;37.980;23.748;2023-03-23T09:40:40;4.25;;;2.30;;
18302;SDS011;9277;37.980;23.748;2023-03-23T09:43:14;4.05;;;2.60;;
18302;SDS011;9277;37.980;23.748;2023-03-23T09:48:29;2.55;;;2.08;;
18302;SDS011;9277;37.980;23.748;2023-03-23T09:50:58;4.03;;;2.40;;
18302;SDS011;9277;37.980;23.748;2023-03-23T09:53:27;3.20;;;2.20;;
18302;SDS011;9277;37.980;23.748;2023-03-23T09:56:01;4.93;;;2.33;;
18302;SDS011;9277;37.980;23.748;2023-03-23T09:58:31;3.80;;;2.17;;
18302;SDS011;9277;37.980;23.748;2023-03-23T10:00:59;2.92;;;2.20;;
18302;SDS011;9277;37.980;23.748;2023-03-23T10:03:29;2.35;;;2.15;;
18302;SDS011;9277;37.980;23.748;2023-03-23T10:05:57;1.92;;;1.83;;
18302;SDS011;9277;37.980;23.748;2023-03-23T10:08:24;2.75;;;1.92;;
18302;SDS011;9277;37.980;23.748;2023-03-23T10:10:54;6.20;;;2.25;;
18302;SDS011;9277;37.980;23.748;2023-03-23T10:13:27;2.53;;;1.92;;
18302;SDS011;9277;37.980;23.748;2023-03-23T10:15:56;2.33;;;2.13;;
18302;SDS011;9277;37.980;23.748;2023-03-23T10:18:25;4.88;;;2.17;;
18302;SDS011;9277;37.980;23.748;2023-03-23T10:20:54;4.45;;;2.33;;
18302;SDS011;9277;37.980;23.748;2023-03-23T10:23:37;2.85;;;2.22;;
18302;SDS011;9277;37.980;23.748;2023-03-23T10:26:12;3.88;;;2.45;;
18302;SDS011;9277;37.980;23.748;2023-03-23T10:28:44;2.92;;;2.25;;
18302;SDS011;9277;37.980;23.748;2023-03-23T10:31:14;1.95;;;1.83;;
18302;SDS011;9277;37.980;23.748;2023-03-23T10:33:43;1.70;;;1.60;;
18302;SDS011;9277;37.980;23.748;2023-03-23T10:36:12;2.80;;;1.80;;
18302;SDS011;9277;37.980;23.748;2023-03-23T10:38:41;3.85;;;1.95;;
18302;SDS011;9277;37.980;23.748;2023-03-23T10:41:11;1.63;;;1.52;;
18302;SDS011;9277;37.980;23.748;2023-03-23T10:43:38;2.55;;;1.88;;
18302;SDS011;9277;37.980;23.748;2023-03-23T10:46:13;2.50;;;1.77;;
18302;SDS011;9277;37.980;23.748;2023-03-23T10:48:43;2.78;;;1.83;;
18302;SDS011;9277;37.980;23.748;2023-03-23T10:51:13;2.70;;;1.80;;
18302;SDS011;9277;37.980;23.748;2023-03-23T10:53:43;7.28;;;2.70;;
18302;SDS011;9277;37.980;23.748;2023-03-23T10:56:20;2.78;;;1.95;;
18302;SDS011;9277;37.980;23.748;2023-03-23T10:58:48;2.20;;;2.00;;
18302;SDS011;9277;37.980;23.748;2023-03-23T11:01:17;2.15;;;1.95;;
18302;SDS011;9277;37.980;23.748;2023-03-23T11:03:46;2.90;;;2.38;;
18302;SDS011;9277;37.980;23.748;2023-03-23T11:06:18;2.55;;;2.00;;
18302;SDS011;9277;37.980;23.748;2023-03-23T11:08:50;2.20;;;2.00;;
18302;SDS011;9277;37.980;23.748;2023-03-23T11:11:19;3.25;;;1.70;;
18302;SDS011;9277;37.980;23.748;2023-03-23T11:13:48;3.85;;;2.35;;
18302;SDS011;9277;37.980;23.748;2023-03-23T11:16:24;2.88;;;2.38;;
18302;SDS011;9277;37.980;23.748;2023-03-23T11:18:54;2.35;;;1.88;;
18302;SDS011;9277;37.980;23.748;2023-03-23T11:21:22;3.28;;;2.30;;
18302;SDS011;9277;37.980;23.748;2023-03-23T11:23:51;1.92;;;1.83;;
18302;SDS011;9277;37.980;23.748;2023-03-23T11:26:21;2.28;;;1.83;;
18302;SDS011;9277;37.980;23.748;2023-03-23T11:28:51;2.47;;;2.10;;
18302;SDS011;9277;37.980;23.748;2023-03-23T11:31:20;5.03;;;2.10;;
18302;SDS011;9277;37.980;23.748;2023-03-23T11:33:52;3.58;;;2.00;;
18302;SDS011;9277;37.980;23.748;2023-03-23T11:36:20;4.43;;;2.42;;
18302;SDS011;9277;37.980;23.748;2023-03-23T11:38:52;4.03;;;2.10;;
18302;SDS011;9277;37.980;23.748;2023-03-23T11:41:21;3.13;;;1.90;;
18302;SDS011;9277;37.980;23.748;2023-03-23T11:43:50;3.75;;;2.17;;
18302;SDS011;9277;37.980;23.748;2023-03-23T11:46:20;4.50;;;2.10;;
18302;SDS011;9277;37.980;23.748;2023-03-23T11:48:53;2.65;;;2.08;;
18302;SDS011;9277;37.980;23.748;2023-03-23T11:51:23;2.22;;;2.10;;
18302;SDS011;9277;37.980;23.748;2023-03-23T11:53:53;6.55;;;2.65;;
18302;SDS011;9277;37.980;23.748;2023-03-23T11:56:23;4.43;;;2.00;;
18302;SDS011;9277;37.980;23.748;2023-03-23T11:58:53;2.55;;;1.95;;
18302;SDS011;9277;37.980;23.748;2023-03-23T12:01:23;4.70;;;2.40;;
18302;SDS011;9277;37.980;23.748;2023-03-23T12:04:03;2.22;;;2.13;;
18302;SDS011;9277;37.980;23.748;2023-03-23T12:06:37;3.15;;;2.33;;
18302;SDS011;9277;37.980;23.748;2023-03-23T12:09:13;2.22;;;2.03;;
18302;SDS011;9277;37.980;23.748;2023-03-23T12:11:45;3.90;;;2.65;;
18302;SDS011;9277;37.980;23.748;2023-03-23T12:14:18;2.38;;;2.17;;
18302;SDS011;9277;37.980;23.748;2023-03-23T12:16:53;2.63;;;2.25;;
18302;SDS011;9277;37.980;23.748;2023-03-23T12:19:29;3.08;;;2.55;;
18302;SDS011;9277;37.980;23.748;2023-03-23T12:22:00;2.40;;;2.20;;
18302;SDS011;9277;37.980;23.748;2023-03-23T12:24:36;3.22;;;2.22;;
18302;SDS011;9277;37.980;23.748;2023-03-23T12:27:07;2.20;;;2.00;;
18302;SDS011;9277;37.980;23.748;2023-03-23T12:29:58;3.20;;;2.35;;
18302;SDS011;9277;37.980;23.748;2023-03-23T12:32:30;2.00;;;1.83;;
18302;SDS011;9277;37.980;23.748;2023-03-23T12:35:03;3.40;;;2.00;;
18302;SDS011;9277;37.980;23.748;2023-03-23T12:37:36;2.55;;;2.33;;
18302;SDS011;9277;37.980;23.748;2023-03-23T12:40:15;1.88;;;1.70;;
18302;SDS011;9277;37.980;23.748;2023-03-23T12:42:49;5.63;;;2.10;;
18302;SDS011;9277;37.980;23.748;2023-03-23T12:45:22;2.22;;;2.03;;
18302;SDS011;9277;37.980;23.748;2023-03-23T12:47:50;2.00;;;1.83;;
18302;SDS011;9277;37.980;23.748;2023-03-23T12:50:30;3.40;;;1.75;;
18302;SDS011;9277;37.980;23.748;2023-03-23T12:52:59;2.35;;;2.15;;
18302;SDS011;9277;37.980;23.748;2023-03-23T12:55:31;1.60;;;1.50;;
18302;SDS011;9277;37.980;23.748;2023-03-23T12:58:01;1.70;;;1.60;;
18302;SDS011;9277;37.980;23.748;2023-03-23T13:00:30;2.85;;;1.90;;
18302;SDS011;9277;37.980;23.748;2023-03-23T13:03:02;2.33;;;1.70;;
18302;SDS011;9277;37.980;23.748;2023-03-23T13:05:37;2.90;;;1.55;;
18302;SDS011;9277;37.980;23.748;2023-03-23T13:08:21;1.60;;;1.50;;
18302;SDS011;9277;37.980;23.748;2023-03-23T13:10:49;1.80;;;1.15;;
18302;SDS011;9277;37.980;23.748;2023-03-23T13:13:18;2.15;;;1.60;;
18302;SDS011;9277;37.980;23.748;2023-03-23T13:15:51;1.45;;;1.40;;
18302;SDS011;9277;37.980;23.748;2023-03-23T13:18:24;1.73;;;1.50;;
18302;SDS011;9277;37.980;23.748;2023-03-23T13:20:58;1.50;;;1.40;;
18302;SDS011;9277;37.980;23.748;2023-03-23T13:23:28;1.65;;;1.50;;
18302;SDS011;9277;37.980;23.748;2023-03-23T13:25:56;2.90;;;1.60;;
18302;SDS011;9277;37.980;23.748;2023-03-23T13:28:27;1.50;;;1.40;;
18302;SDS011;9277;37.980;23.748;2023-03-23T13:30:59;2.67;;;1.50;;
18302;SDS011;9277;37.980;23.748;2023-03-23T13:33:29;1.23;;;1.15;;
18302;SDS011;9277;37.980;23.748;2023-03-23T13:36:01;1.02;;;1.02;;
18302;SDS011;9277;37.980;23.748;2023-03-23T13:38:32;1.33;;;1.23;;
18302;SDS011;9277;37.980;23.748;2023-03-23T13:41:06;2.50;;;1.50;;
18302;SDS011;9277;37.980;23.748;2023-03-23T13:43:35;2.42;;;1.20;;
18302;SDS011;9277;37.980;23.748;2023-03-23T13:46:07;1.00;;;1.00;;
18302;SDS011;9277;37.980;23.748;2023-03-23T13:48:42;1.75;;;1.40;;
18302;SDS011;9277;37.980;23.748;2023-03-23T13:51:32;2.10;;;1.20;;
18302;SDS011;9277;37.980;23.748;2023-03-23T13:54:05;1.20;;;1.20;;
18302;SDS011;9277;37.980;23.748;2023-03-23T13:56:36;1.50;;;1.40;;
18302;SDS011;9277;37.980;23.748;2023-03-23T13:59:05;1.58;;;1.40;;
18302;SDS011;9277;37.980;23.748;2023-03-23T14:01:32;1.60;;;1.50;;
18302;SDS011;9277;37.980;23.748;2023-03-23T14:04:00;1.60;;;1.50;;
18302;SDS011;9277;37.980;23.748;2023-03-23T14:06:34;2.40;;;1.40;;
18302;SDS011;9277;37.980;23.748;2023-03-23T14:09:04;3.15;;;1.50;;
18302;SDS011;9277;37.980;23.748;2023-03-23T14:11:44;1.50;;;1.50;;
18302;SDS011;9277;37.980;23.748;2023-03-23T14:14:14;1.42;;;1.40;;
18302;SDS011;9277;37.980;23.748;2023-03-23T14:16:42;1.70;;;1.60;;
18302;SDS011;9277;37.980;23.748;2023-03-23T14:19:15;2.08;;;1.60;;
18302;SDS011;9277;37.980;23.748;2023-03-23T14:21:51;3.50;;;1.40;;
18302;SDS011;9277;37.980;23.748;2023-03-23T14:24:22;1.50;;;1.40;;
18302;SDS011;9277;37.980;23.748;2023-03-23T14:26:51;1.55;;;1.45;;
18302;SDS011;9277;37.980;23.748;2023-03-23T14:29:19;1.70;;;1.60;;
18302;SDS011;9277;37.980;23.748;2023-03-23T14:31:48;2.60;;;1.50;;
18302;SDS011;9277;37.980;23.748;2023-03-23T14:34:16;1.67;;;1.58;;
18302;SDS011;9277;37.980;23.748;2023-03-23T14:36:44;1.70;;;1.60;;
18302;SDS011;9277;37.980;23.748;2023-03-23T14:39:16;5.15;;;1.42;;
18302;SDS011;9277;37.980;23.748;2023-03-23T14:41:44;2.00;;;1.73;;
18302;SDS011;9277;37.980;23.748;2023-03-23T14:44:12;2.42;;;1.90;;
18302;SDS011;9277;37.980;23.748;2023-03-23T14:46:40;2.15;;;1.95;;
18302;SDS011;9277;37.980;23.748;2023-03-23T14:49:10;2.22;;;2.03;;
18302;SDS011;9277;37.980;23.748;2023-03-23T14:51:46;2.38;;;2.10;;
18302;SDS011;9277;37.980;23.748;2023-03-23T14:54:13;2.40;;;2.17;;
18302;SDS011;9277;37.980;23.748;2023-03-23T14:56:43;3.58;;;2.20;;
18302;SDS011;9277;37.980;23.748;2023-03-23T14:59:10;2.67;;;2.28;;
18302;SDS011;9277;37.980;23.748;2023-03-23T15:01:37;2.53;;;2.00;;
18302;SDS011;9277;37.980;23.748;2023-03-23T15:04:06;2.20;;;2.00;;
18302;SDS011;9277;37.980;23.748;2023-03-23T15:06:36;2.67;;;2.17;;
18302;SDS011;9277;37.980;23.748;2023-03-23T15:09:04;2.70;;;2.20;;